Time,TemperatureF,DewpointF,PressureIn,WindDirection,WindDirectionDegrees,WindSpeedMPH,WindSpeedGustMPH,Humidity,HourlyPrecipIn,Conditions,Clouds,dailyrainin,SoftwareType,DateUTC
2013-03-11 00:03:00,31.4,4.2,30.24,NE,42,0.0,0.0,31,0.00,,,0.00,WeatherDisplay:10.37,2013-03-11 07:03:00,
2013-03-11 00:09:00,31.0,4.5,30.24,NE,42,0.0,0.0,32,0.00,,,0.00,WeatherDisplay:10.37,2013-03-11 07:09:00,
2013-03-11 00:18:00,30.6,4.2,30.24,NE,37,0.0,0.0,32,0.00,,,0.00,WeatherDisplay:10.37,2013-03-11 07:18:00,
2013-03-11 00:28:00,33.5,5.3,30.24,NNE,30,1.0,4.0,30,0.00,,,0.00,WeatherDisplay:10.37,2013-03-11 07:28:00,
2013-03-11 00:38:00,33.4,6.0,30.24,NE,48,0.0,0.0,31,0.00,,,0.00,WeatherDisplay:10.37,2013-03-11 07:38:00,
2013-03-11 00:48:00,32.2,5.6,30.24,NE,53,0.0,0.0,32,0.00,,,0.00,WeatherDisplay:10.37,2013-03-11 07:48:00,
2013-03-11 00:58:00,30.7,4.9,30.24,ENE,57,0.0,0.0,33,0.00,,,0.00,WeatherDisplay:10.37,2013-03-11 07:58:00,
2013-03-11 01:03:00,30.2,4.5,30.24,NE,53,0.0,0.0,33,0.00,,,0.00,WeatherDisplay:10.37,2013-03-11 08:03:00,
2013-03-11 01:08:00,30.5,4.1,30.24,NE,44,0.0,0.0,32,0.00,,,0.00,WeatherDisplay:10.37,2013-03-11 08:08:00,
2013-03-11 01:18:00,32.2,4.9,30.24,NNW,347,0.0,0.0,31,0.00,,,0.00,WeatherDisplay:10.37,2013-03-11 08:18:00,
2013-03-11 01:23:00,33.2,5.1,30.24,NNW,346,0.0,0.0,30,0.00,,,0.00,WeatherDisplay:10.37,2013-03-11 08:23:00,
2013-03-11 01:33:00,33.8,5.6,30.24,NNW,348,0.0,0.0,30,0.00,,,0.00,WeatherDisplay:10.37,2013-03-11 08:33:00,
2013-03-11 01:38:00,33.4,6.0,30.21,NNW,348,0.0,0.0,31,0.00,,,0.00,WeatherDisplay:10.37,2013-03-11 08:38:00,
2013-03-11 01:43:00,33.7,5.5,30.21,North,352,0.0,0.0,30,0.00,,,0.00,WeatherDisplay:10.37,2013-03-11 08:43:00,
2013-03-11 01:48:00,34.0,5.7,30.21,North,352,0.0,0.0,30,0.00,,,0.00,WeatherDisplay:10.37,2013-03-11 08:48:00,
2013-03-11 01:53:00,32.6,5.3,30.21,NW,306,0.0,0.0,31,0.00,,,0.00,WeatherDisplay:10.37,2013-03-11 08:53:00,
2013-03-11 01:58:00,31.2,4.7,30.21,West,273,0.0,0.0,32,0.00,,,0.00,WeatherDisplay:10.37,2013-03-11 08:58:00,
2013-03-11 02:03:00,30.1,5.7,30.21,West,273,0.0,0.0,35,0.00,,,0.00,WeatherDisplay:10.37,2013-03-11 09:03:00,
2013-03-11 02:08:00,29.1,8.3,30.21,West,273,0.0,0.0,41,0.00,,,0.00,WeatherDisplay:10.37,2013-03-11 09:08:00,
2013-03-11 02:18:00,28.2,11.0,30.21,West,277,0.0,0.0,48,0.00,,,0.00,WeatherDisplay:10.37,2013-03-11 09:18:00,
2013-03-11 02:23:00,29.1,8.3,30.21,WNW,292,0.0,0.0,41,0.00,,,0.00,WeatherDisplay:10.37,2013-03-11 09:23:00,
2013-03-11 02:28:00,30.2,7.0,30.21,WNW,300,0.0,0.0,37,0.00,,,0.00,WeatherDisplay:10.37,2013-03-11 09:28:00,
2013-03-11 02:38:00,30.7,5.6,30.21,WNW,300,0.0,0.0,34,0.00,,,0.00,WeatherDisplay:10.37,2013-03-11 09:38:00,
2013-03-11 02:43:00,30.7,5.6,30.21,WNW,300,0.0,0.0,34,0.00,,,0.00,WeatherDisplay:10.37,2013-03-11 09:43:00,
2013-03-11 02:48:00,30.3,5.8,30.21,WNW,288,0.0,0.0,35,0.00,,,0.00,WeatherDisplay:10.37,2013-03-11 09:48:00,
2013-03-11 02:53:00,29.5,6.9,30.21,West,277,0.0,0.0,38,0.00,,,0.00,WeatherDisplay:10.37,2013-03-11 09:53:00,
2013-03-11 02:58:00,28.7,8.0,30.21,West,277,0.0,0.0,41,0.00,,,0.00,WeatherDisplay:10.37,2013-03-11 09:58:00,
2013-03-11 03:03:00,28.4,7.1,30.21,West,280,0.0,0.0,40,0.00,,,0.00,WeatherDisplay:10.37,2013-03-11 10:03:00,
2013-03-11 03:08:00,28.6,5.0,30.21,WNW,283,0.0,0.0,36,0.00,,,0.00,WeatherDisplay:10.37,2013-03-11 10:08:00,
2013-03-11 03:13:00,28.9,5.3,30.21,West,275,0.0,0.0,36,0.00,,,0.00,WeatherDisplay:10.37,2013-03-11 10:13:00,
2013-03-11 03:18:00,29.1,5.4,30.21,West,261,0.0,0.0,36,0.00,,,0.00,WeatherDisplay:10.37,2013-03-11 10:18:00,
2013-03-11 03:23:00,28.9,4.7,30.21,WSW,257,0.0,0.0,35,0.00,,,0.00,WeatherDisplay:10.37,2013-03-11 10:23:00,
2013-03-11 03:28:00,28.8,4.5,30.21,WSW,257,0.0,0.0,35,0.00,,,0.00,WeatherDisplay:10.37,2013-03-11 10:28:00,
2013-03-11 03:33:00,28.8,5.1,30.21,WSW,257,0.0,0.0,36,0.00,,,0.00,WeatherDisplay:10.37,2013-03-11 10:33:00,
2013-03-11 03:38:00,28.6,4.3,30.21,WSW,257,0.0,0.0,35,0.00,,,0.00,WeatherDisplay:10.37,2013-03-11 10:38:00,
2013-03-11 03:43:00,28.4,4.8,30.21,WSW,257,0.0,0.0,36,0.00,,,0.00,WeatherDisplay:10.37,2013-03-11 10:43:00,
2013-03-11 03:48:00,28.4,4.2,30.21,WSW,257,0.0,0.0,35,0.00,,,0.00,WeatherDisplay:10.37,2013-03-11 10:48:00,
2013-03-11 03:58:00,29.3,3.7,30.21,WSW,257,0.0,0.0,33,0.00,,,0.00,WeatherDisplay:10.37,2013-03-11 10:58:00,
2013-03-11 04:08:00,30.1,3.8,30.21,WSW,257,0.0,0.0,32,0.00,,,0.00,WeatherDisplay:10.37,2013-03-11 11:08:00,
2013-03-11 04:13:00,30.2,3.8,30.21,WSW,257,0.0,0.0,32,0.00,,,0.00,WeatherDisplay:10.37,2013-03-11 11:13:00,
2013-03-11 04:18:00,30.2,4.5,30.21,WSW,257,0.0,0.0,33,0.00,,,0.00,WeatherDisplay:10.37,2013-03-11 11:18:00,
2013-03-11 04:23:00,29.7,4.0,30.21,WSW,257,0.0,0.0,33,0.00,,,0.00,WeatherDisplay:10.37,2013-03-11 11:23:00,
2013-03-11 04:28:00,28.8,3.9,30.21,WSW,257,0.0,0.0,34,0.00,,,0.00,WeatherDisplay:10.37,2013-03-11 11:28:00,
2013-03-11 04:38:00,29.3,3.7,30.21,West,265,0.0,0.0,33,0.00,,,0.00,WeatherDisplay:10.37,2013-03-11 11:38:00,
2013-03-11 04:43:00,29.3,4.3,30.21,West,269,0.0,0.0,34,0.00,,,0.00,WeatherDisplay:10.37,2013-03-11 11:43:00,
2013-03-11 04:48:00,28.7,4.5,30.21,West,269,0.0,0.0,35,0.00,,,0.00,WeatherDisplay:10.37,2013-03-11 11:48:00,
2013-03-11 04:58:00,27.9,6.1,30.18,West,269,0.0,0.0,39,0.00,,,0.00,WeatherDisplay:10.37,2013-03-11 11:58:00,
2013-03-11 05:03:00,27.3,6.7,30.18,West,269,0.0,0.0,41,0.00,,,0.00,WeatherDisplay:10.37,2013-03-11 12:03:00,
2013-03-11 05:08:00,27.1,5.4,30.18,West,269,0.0,0.0,39,0.00,,,0.00,WeatherDisplay:10.37,2013-03-11 12:08:00,
2013-03-11 05:18:00,27.4,5.0,30.18,West,269,0.0,0.0,38,0.00,,,0.00,WeatherDisplay:10.37,2013-03-11 12:18:00,
2013-03-11 05:23:00,28.2,4.6,30.21,West,269,0.0,0.0,36,0.00,,,0.00,WeatherDisplay:10.37,2013-03-11 12:23:00,
2013-03-11 05:33:00,29.1,5.4,30.21,West,269,0.0,0.0,36,0.00,,,0.00,WeatherDisplay:10.37,2013-03-11 12:33:00,
2013-03-11 05:43:00,28.6,5.0,30.21,West,269,0.0,0.0,36,0.00,,,0.00,WeatherDisplay:10.37,2013-03-11 12:43:00,
2013-03-11 05:48:00,28.2,5.2,30.21,West,269,0.0,0.0,37,0.00,,,0.00,WeatherDisplay:10.37,2013-03-11 12:48:00,
2013-03-11 05:53:00,27.9,5.5,30.21,West,269,0.0,0.0,38,0.00,,,0.00,WeatherDisplay:10.37,2013-03-11 12:53:00,
2013-03-11 06:03:00,27.5,5.2,30.21,West,269,0.0,0.0,38,0.00,,,0.00,WeatherDisplay:10.37,2013-03-11 13:03:00,
2013-03-11 06:08:00,27.3,5.6,30.21,West,269,0.0,0.0,39,0.00,,,0.00,WeatherDisplay:10.37,2013-03-11 13:08:00,
2013-03-11 06:13:00,27.3,5.6,30.21,West,269,0.0,0.0,39,0.00,,,0.00,WeatherDisplay:10.37,2013-03-11 13:13:00,
2013-03-11 06:18:00,27.3,5.6,30.21,West,269,0.0,0.0,39,0.00,,,0.00,WeatherDisplay:10.37,2013-03-11 13:18:00,
2013-03-11 06:28:00,27.0,5.8,30.21,West,269,0.0,0.0,40,0.00,,,0.00,WeatherDisplay:10.37,2013-03-11 13:28:00,
2013-03-11 06:38:00,27.3,5.6,30.21,West,269,0.0,0.0,39,0.00,,,0.00,WeatherDisplay:10.37,2013-03-11 13:38:00,
2013-03-11 06:43:00,27.3,5.6,30.21,West,269,0.0,0.0,39,0.00,,,0.00,WeatherDisplay:10.37,2013-03-11 13:43:00,
2013-03-11 06:48:00,27.5,5.8,30.21,West,269,0.0,0.0,39,0.00,,,0.00,WeatherDisplay:10.37,2013-03-11 13:48:00,
2013-03-11 06:53:00,28.2,5.8,30.21,West,269,0.0,0.0,38,0.00,,,0.00,WeatherDisplay:10.37,2013-03-11 13:53:00,
2013-03-11 06:58:00,28.5,5.5,30.21,West,269,0.0,0.0,37,0.00,,,0.00,WeatherDisplay:10.37,2013-03-11 13:58:00,
2013-03-11 07:03:00,28.6,5.6,30.21,West,269,0.0,0.0,37,0.00,,,0.00,WeatherDisplay:10.37,2013-03-11 14:03:00,
2013-03-11 07:08:00,28.4,5.4,30.21,West,269,0.0,0.0,37,0.00,,,0.00,WeatherDisplay:10.37,2013-03-11 14:08:00,
2013-03-11 07:18:00,27.9,4.9,30.21,West,269,0.0,0.0,37,0.00,,,0.00,WeatherDisplay:10.37,2013-03-11 14:18:00,
2013-03-11 07:23:00,27.9,4.9,30.21,West,269,0.0,0.0,37,0.00,,,0.00,WeatherDisplay:10.37,2013-03-11 14:23:00,
2013-03-11 07:28:00,27.7,4.8,30.21,West,269,0.0,0.0,37,0.00,,,0.00,WeatherDisplay:10.37,2013-03-11 14:28:00,
2013-03-11 07:38:00,28.6,5.6,30.21,West,269,0.0,0.0,37,0.00,,,0.00,WeatherDisplay:10.37,2013-03-11 14:38:00,
2013-03-11 07:43:00,29.7,6.5,30.21,West,269,0.0,0.0,37,0.00,,,0.00,WeatherDisplay:10.37,2013-03-11 14:43:00,
2013-03-11 07:48:00,30.5,6.7,30.21,West,269,0.0,0.0,36,0.00,,,0.00,WeatherDisplay:10.37,2013-03-11 14:48:00,
2013-03-11 07:53:00,30.8,6.9,30.21,West,269,0.0,0.0,36,0.00,,,0.00,WeatherDisplay:10.37,2013-03-11 14:53:00,
2013-03-11 08:03:00,31.6,7.1,30.21,West,269,0.0,0.0,35,0.00,,,0.00,WeatherDisplay:10.37,2013-03-11 15:03:00,
2013-03-11 08:08:00,32.2,8.2,30.21,West,269,0.0,0.0,36,0.00,,,0.00,WeatherDisplay:10.37,2013-03-11 15:08:00,
2013-03-11 08:13:00,32.7,8.6,30.21,West,269,0.0,0.0,36,0.00,,,0.00,WeatherDisplay:10.37,2013-03-11 15:13:00,
2013-03-11 08:18:00,33.3,9.8,30.21,West,269,0.0,0.0,37,0.00,,,0.00,WeatherDisplay:10.37,2013-03-11 15:18:00,
2013-03-11 08:23:00,33.4,9.9,30.21,West,269,0.0,0.0,37,0.00,,,0.00,WeatherDisplay:10.37,2013-03-11 15:23:00,
2013-03-11 08:28:00,33.6,10.1,30.21,West,269,0.0,0.0,37,0.00,,,0.00,WeatherDisplay:10.37,2013-03-11 15:28:00,
2013-03-11 08:38:00,34.9,11.2,30.21,West,269,0.0,0.0,37,0.00,,,0.00,WeatherDisplay:10.37,2013-03-11 15:38:00,
2013-03-11 08:48:00,37.1,13.8,30.21,West,269,0.0,0.0,38,0.00,,,0.00,WeatherDisplay:10.37,2013-03-11 15:48:00,
2013-03-11 08:53:00,38.4,15.6,30.21,West,269,0.0,0.0,39,0.00,,,0.00,WeatherDisplay:10.37,2013-03-11 15:53:00,
2013-03-11 09:03:00,40.8,17.7,30.21,West,269,0.0,0.0,39,0.00,,,0.00,WeatherDisplay:10.37,2013-03-11 16:03:00,
2013-03-11 09:08:00,42.1,17.7,30.21,West,269,0.0,0.0,37,0.00,,,0.00,WeatherDisplay:10.37,2013-03-11 16:08:00,
2013-03-11 09:13:00,43.3,16.8,30.21,West,269,0.0,0.0,34,0.00,,,0.00,WeatherDisplay:10.37,2013-03-11 16:13:00,
2013-03-11 09:18:00,44.4,19.8,30.21,West,269,0.0,0.0,37,0.00,,,0.00,WeatherDisplay:10.37,2013-03-11 16:18:00,
2013-03-11 09:23:00,46.3,20.1,30.21,West,269,0.0,0.0,35,0.00,,,0.00,WeatherDisplay:10.37,2013-03-11 16:23:00,
2013-03-11 09:28:00,47.4,20.4,30.21,West,269,0.0,0.0,34,0.00,,,0.00,WeatherDisplay:10.37,2013-03-11 16:28:00,
2013-03-11 09:38:00,48.2,18.9,30.21,West,265,0.0,0.0,31,0.00,,,0.00,WeatherDisplay:10.37,2013-03-11 16:38:00,
2013-03-11 09:43:00,48.9,17.2,30.21,West,265,0.0,0.0,28,0.00,,,0.00,WeatherDisplay:10.37,2013-03-11 16:43:00,
2013-03-11 09:48:00,49.9,17.2,30.21,West,265,0.0,0.0,27,0.00,,,0.00,WeatherDisplay:10.37,2013-03-11 16:48:00,
2013-03-11 09:58:00,52.3,18.4,30.24,West,266,0.0,0.0,26,0.00,,,0.00,WeatherDisplay:10.37,2013-03-11 16:58:00,
2013-03-11 10:03:00,53.1,19.0,30.24,NW,312,0.0,0.0,26,0.00,,,0.00,WeatherDisplay:10.37,2013-03-11 17:03:00,
2013-03-11 10:09:00,54.0,19.9,30.21,North,3,0.0,0.0,26,0.00,,,0.00,WeatherDisplay:10.37,2013-03-11 17:09:00,
2013-03-11 10:18:00,55.9,20.6,30.21,NE,55,0.0,0.0,25,0.00,,,0.00,WeatherDisplay:10.37,2013-03-11 17:18:00,
2013-03-11 10:23:00,56.5,21.0,30.21,SSE,147,0.0,0.0,25,0.00,,,0.00,WeatherDisplay:10.37,2013-03-11 17:23:00,
2013-03-11 10:28:00,57.1,18.6,30.21,SSE,164,0.0,0.0,22,0.00,,,0.00,WeatherDisplay:10.37,2013-03-11 17:28:00,
2013-03-11 10:38:00,58.3,19.6,30.21,SE,133,0.0,0.0,22,0.00,,,0.00,WeatherDisplay:10.37,2013-03-11 17:38:00,
2013-03-11 10:48:00,59.2,20.3,30.21,SE,138,0.0,3.0,22,0.00,,,0.00,WeatherDisplay:10.37,2013-03-11 17:48:00,
2013-03-11 10:58:00,59.8,17.4,30.21,SSE,150,0.0,0.0,19,0.00,,,0.00,WeatherDisplay:10.37,2013-03-11 17:58:00,
2013-03-11 11:03:00,60.3,19.0,30.21,SSE,167,0.0,0.0,20,0.00,,,0.00,WeatherDisplay:10.37,2013-03-11 18:03:00,
2013-03-11 11:08:00,60.4,17.9,30.21,South,175,0.0,0.0,19,0.00,,,0.00,WeatherDisplay:10.37,2013-03-11 18:08:00,
2013-03-11 11:18:00,60.3,17.8,30.21,South,174,1.0,4.0,19,0.00,,,0.00,WeatherDisplay:10.37,2013-03-11 18:18:00,
2013-03-11 11:23:00,60.1,17.6,30.21,SSW,200,1.0,4.0,19,0.00,,,0.00,WeatherDisplay:10.37,2013-03-11 18:23:00,
2013-03-11 11:28:00,59.8,17.4,30.21,SW,225,0.0,4.0,19,0.00,,,0.00,WeatherDisplay:10.37,2013-03-11 18:28:00,
2013-03-11 11:33:00,59.6,17.2,30.21,SW,221,0.0,4.0,19,0.00,,,0.00,WeatherDisplay:10.37,2013-03-11 18:33:00,
2013-03-11 11:43:00,59.5,17.2,30.21,SW,217,0.0,0.0,19,0.00,,,0.00,WeatherDisplay:10.37,2013-03-11 18:43:00,
2013-03-11 11:48:00,59.9,17.5,30.21,SSW,199,0.0,0.0,19,0.00,,,0.00,WeatherDisplay:10.37,2013-03-11 18:48:00,
2013-03-11 11:53:00,60.4,17.9,30.21,South,182,1.0,4.0,19,0.00,,,0.00,WeatherDisplay:10.37,2013-03-11 18:53:00,
2013-03-11 11:58:00,60.6,18.1,30.21,South,177,0.0,4.0,19,0.00,,,0.00,WeatherDisplay:10.37,2013-03-11 18:58:00,
2013-03-11 12:03:00,60.7,18.2,30.21,SSW,201,0.0,5.0,19,0.00,,,0.00,WeatherDisplay:10.37,2013-03-11 19:03:00,
2013-03-11 12:08:00,60.8,18.2,30.21,WSW,244,3.0,6.0,19,0.00,,,0.00,WeatherDisplay:10.37,2013-03-11 19:08:00,
2013-03-11 12:13:00,60.8,18.2,30.21,WSW,239,3.0,6.0,19,0.00,,,0.00,WeatherDisplay:10.37,2013-03-11 19:13:00,
2013-03-11 12:18:00,60.6,18.1,30.21,West,259,3.0,6.0,19,0.00,,,0.00,WeatherDisplay:10.37,2013-03-11 19:18:00,
2013-03-11 12:28:00,60.2,17.7,30.21,WNW,291,5.0,6.0,19,0.00,,,0.00,WeatherDisplay:10.37,2013-03-11 19:28:00,
2013-03-11 12:33:00,59.9,17.5,30.21,WNW,284,3.0,6.0,19,0.00,,,0.00,WeatherDisplay:10.37,2013-03-11 19:33:00,
2013-03-11 12:38:00,59.5,17.2,30.21,West,277,5.0,6.0,19,0.00,,,0.00,WeatherDisplay:10.37,2013-03-11 19:38:00,
2013-03-11 12:43:00,59.4,17.0,30.21,WSW,258,3.0,7.0,19,0.00,,,0.00,WeatherDisplay:10.37,2013-03-11 19:43:00,
2013-03-11 12:48:00,59.2,20.3,30.21,West,266,6.0,8.0,22,0.00,,,0.00,WeatherDisplay:10.37,2013-03-11 19:48:00,
2013-03-11 12:58:00,58.7,19.9,30.21,West,266,7.0,8.0,22,0.00,,,0.00,WeatherDisplay:10.37,2013-03-11 19:58:00,
2013-03-11 13:03:00,58.6,19.9,30.21,WNW,285,6.0,8.0,22,0.00,,,0.00,WeatherDisplay:10.37,2013-03-11 20:03:00,
2013-03-11 13:08:00,58.5,19.7,30.21,WNW,284,5.0,8.0,22,0.00,,,0.00,WeatherDisplay:10.37,2013-03-11 20:08:00,
2013-03-11 13:13:00,58.3,19.6,30.21,WNW,289,3.0,7.0,22,0.00,,,0.00,WeatherDisplay:10.37,2013-03-11 20:13:00,
2013-03-11 13:18:00,58.2,19.5,30.21,WNW,297,5.0,8.0,22,0.00,,,0.00,WeatherDisplay:10.37,2013-03-11 20:18:00,
2013-03-11 13:23:00,58.3,20.6,30.18,WNW,297,1.0,7.0,23,0.00,,,0.00,WeatherDisplay:10.37,2013-03-11 20:23:00,
2013-03-11 13:28:00,58.4,19.6,30.18,WNW,289,3.0,8.0,22,0.00,,,0.00,WeatherDisplay:10.37,2013-03-11 20:28:00,
2013-03-11 13:33:00,58.4,19.6,30.18,WNW,289,5.0,8.0,22,0.00,,,0.00,WeatherDisplay:10.37,2013-03-11 20:33:00,
2013-03-11 13:38:00,58.3,19.6,30.18,WNW,287,5.0,8.0,22,0.00,,,0.00,WeatherDisplay:10.37,2013-03-11 20:38:00,
2013-03-11 13:44:00,58.3,19.6,30.18,WNW,291,3.0,6.0,22,0.00,,,0.00,WeatherDisplay:10.37,2013-03-11 20:44:00,
2013-03-11 13:53:00,58.6,19.8,30.18,WNW,292,5.0,8.0,22,0.00,,,0.00,WeatherDisplay:10.37,2013-03-11 20:53:00,
2013-03-11 13:58:00,58.8,20.0,30.18,WNW,289,3.0,6.0,22,0.00,,,0.00,WeatherDisplay:10.37,2013-03-11 20:58:00,
2013-03-11 14:03:00,58.8,20.0,30.18,WNW,293,3.0,6.0,22,0.00,,,0.00,WeatherDisplay:10.37,2013-03-11 21:03:00,
2013-03-11 14:08:00,59.2,20.3,30.18,WNW,302,2.0,7.0,22,0.00,,,0.00,WeatherDisplay:10.37,2013-03-11 21:08:00,
2013-03-11 14:18:00,59.7,18.5,30.18,NW,307,3.0,6.0,20,0.00,,,0.00,WeatherDisplay:10.37,2013-03-11 21:18:00,
2013-03-11 14:23:00,59.7,20.8,30.18,NW,308,1.0,6.0,22,0.00,,,0.00,WeatherDisplay:10.37,2013-03-11 21:23:00,
2013-03-11 14:28:00,60.1,21.1,30.18,WNW,292,3.0,6.0,22,0.00,,,0.00,WeatherDisplay:10.37,2013-03-11 21:28:00,
2013-03-11 14:33:00,60.3,21.2,30.18,WNW,301,1.0,6.0,22,0.00,,,0.00,WeatherDisplay:10.37,2013-03-11 21:33:00,
2013-03-11 14:38:00,60.4,21.4,30.18,WNW,301,2.0,6.0,22,0.00,,,0.00,WeatherDisplay:10.37,2013-03-11 21:38:00,
2013-03-11 14:48:00,60.4,21.4,30.18,West,280,1.0,4.0,22,0.00,,,0.00,WeatherDisplay:10.37,2013-03-11 21:48:00,
2013-03-11 14:58:00,59.7,20.8,30.18,WNW,302,1.0,6.0,22,0.00,,,0.00,WeatherDisplay:10.37,2013-03-11 21:58:00,
2013-03-11 15:03:00,59.8,20.8,30.18,WNW,290,2.0,6.0,22,0.00,,,0.00,WeatherDisplay:10.37,2013-03-11 22:03:00,
2013-03-11 15:08:00,59.6,17.2,30.18,WNW,303,2.0,7.0,19,0.00,,,0.00,WeatherDisplay:10.37,2013-03-11 22:08:00,
2013-03-11 15:13:00,59.8,17.4,30.18,WNW,298,3.0,6.0,19,0.00,,,0.00,WeatherDisplay:10.37,2013-03-11 22:13:00,
2013-03-11 15:18:00,59.9,17.5,30.18,WNW,294,3.0,8.0,19,0.00,,,0.00,WeatherDisplay:10.37,2013-03-11 22:18:00,
2013-03-11 15:23:00,59.6,17.2,30.18,NW,304,0.0,8.0,19,0.00,,,0.00,WeatherDisplay:10.37,2013-03-11 22:23:00,
2013-03-11 15:29:00,59.5,19.5,30.18,NW,318,3.0,6.0,21,0.00,,,0.00,WeatherDisplay:10.37,2013-03-11 22:29:00,
2013-03-11 15:38:00,59.9,17.5,30.15,West,281,3.0,6.0,19,0.00,,,0.00,WeatherDisplay:10.37,2013-03-11 22:38:00,
2013-03-11 15:48:00,59.7,17.3,30.15,NW,304,2.0,6.0,19,0.00,,,0.00,WeatherDisplay:10.37,2013-03-11 22:48:00,
2013-03-11 15:59:00,59.7,17.3,30.15,West,271,2.0,5.0,19,0.00,,,0.00,WeatherDisplay:10.37,2013-03-11 22:59:00,
2013-03-11 16:08:00,60.1,17.6,30.15,NW,307,1.0,6.0,19,0.00,,,0.00,WeatherDisplay:10.37,2013-03-11 23:08:00,
2013-03-11 16:13:00,59.9,17.5,30.15,WNW,292,3.0,8.0,19,0.00,,,0.00,WeatherDisplay:10.37,2013-03-11 23:13:00,
2013-03-11 16:18:00,59.9,17.5,30.15,WNW,284,1.0,8.0,19,0.00,,,0.00,WeatherDisplay:10.37,2013-03-11 23:18:00,
2013-03-11 16:23:00,59.9,17.5,30.15,WNW,299,2.0,5.0,19,0.00,,,0.00,WeatherDisplay:10.37,2013-03-11 23:23:00,
2013-03-11 16:28:00,59.9,17.5,30.15,West,280,1.0,8.0,19,0.00,,,0.00,WeatherDisplay:10.37,2013-03-11 23:28:00,
2013-03-11 16:33:00,59.7,17.3,30.15,West,279,2.0,6.0,19,0.00,,,0.00,WeatherDisplay:10.37,2013-03-11 23:33:00,
2013-03-11 16:38:00,59.4,17.0,30.15,WNW,293,2.0,6.0,19,0.00,,,0.00,WeatherDisplay:10.37,2013-03-11 23:38:00,
2013-03-11 16:43:00,59.0,16.7,30.15,WNW,287,5.0,8.0,19,0.00,,,0.00,WeatherDisplay:10.37,2013-03-11 23:43:00,
2013-03-11 16:48:00,58.8,16.6,30.15,WNW,289,3.0,6.0,19,0.00,,,0.00,WeatherDisplay:10.37,2013-03-11 23:48:00,
2013-03-11 16:53:00,58.6,16.4,30.15,WNW,293,5.0,8.0,19,0.00,,,0.00,WeatherDisplay:10.37,2013-03-11 23:53:00,
2013-03-11 16:58:00,57.9,15.9,30.15,WNW,288,5.0,6.0,19,0.00,,,0.00,WeatherDisplay:10.37,2013-03-11 23:58:00,
2013-03-11 17:03:00,57.6,15.5,30.15,WNW,287,5.0,6.0,19,0.00,,,0.00,WeatherDisplay:10.37,2013-03-12 00:03:00,
2013-03-11 17:08:00,57.2,15.2,30.15,WNW,287,2.0,6.0,19,0.00,,,0.00,WeatherDisplay:10.37,2013-03-12 00:08:00,
2013-03-11 17:13:00,56.7,16.0,30.15,WNW,293,3.0,8.0,20,0.00,,,0.00,WeatherDisplay:10.37,2013-03-12 00:13:00,
2013-03-11 17:18:00,56.3,15.7,30.15,WNW,296,1.0,6.0,20,0.00,,,0.00,WeatherDisplay:10.37,2013-03-12 00:18:00,
2013-03-11 17:23:00,55.8,15.3,30.15,WNW,296,1.0,6.0,20,0.00,,,0.00,WeatherDisplay:10.37,2013-03-12 00:23:00,
2013-03-11 17:28:00,55.6,15.1,30.15,NW,311,2.0,6.0,20,0.00,,,0.00,WeatherDisplay:10.37,2013-03-12 00:28:00,
2013-03-11 17:38:00,54.7,14.3,30.15,WNW,286,2.0,6.0,20,0.00,,,0.00,WeatherDisplay:10.37,2013-03-12 00:38:00,
2013-03-11 17:43:00,54.3,14.0,30.15,WNW,299,2.0,4.0,20,0.00,,,0.00,WeatherDisplay:10.37,2013-03-12 00:43:00,
2013-03-11 17:48:00,53.8,13.6,30.15,WNW,298,2.0,8.0,20,0.00,,,0.00,WeatherDisplay:10.37,2013-03-12 00:48:00,
2013-03-11 17:58:00,52.6,13.7,30.15,NNW,338,1.0,5.0,21,0.00,,,0.00,WeatherDisplay:10.37,2013-03-12 00:58:00,
2013-03-11 18:03:00,52.0,13.2,30.15,NNW,339,0.0,6.0,21,0.00,,,0.00,WeatherDisplay:10.37,2013-03-12 01:03:00,
2013-03-11 18:08:00,51.4,12.7,30.15,North,356,0.0,6.0,21,0.00,,,0.00,WeatherDisplay:10.37,2013-03-12 01:08:00,
2013-03-11 18:18:00,49.7,11.3,30.15,North,11,0.0,4.0,21,0.00,,,0.00,WeatherDisplay:10.37,2013-03-12 01:18:00,
2013-03-11 18:28:00,48.7,10.5,30.15,North,9,0.0,4.0,21,0.00,,,0.00,WeatherDisplay:10.37,2013-03-12 01:28:00,
2013-03-11 18:38:00,47.8,10.8,30.15,NNE,15,0.0,4.0,22,0.00,,,0.00,WeatherDisplay:10.37,2013-03-12 01:38:00,
2013-03-11 18:48:00,46.9,10.0,30.15,North,11,1.0,6.0,22,0.00,,,0.00,WeatherDisplay:10.37,2013-03-12 01:48:00,
2013-03-11 18:53:00,46.2,9.4,30.15,North,358,0.0,4.0,22,0.00,,,0.00,WeatherDisplay:10.37,2013-03-12 01:53:00,
2013-03-11 18:58:00,45.7,8.9,30.15,North,2,0.0,4.0,22,0.00,,,0.00,WeatherDisplay:10.37,2013-03-12 01:58:00,
2013-03-11 19:03:00,45.8,9.0,30.15,North,1,0.0,0.0,22,0.00,,,0.00,WeatherDisplay:10.37,2013-03-12 02:03:00,
2013-03-11 19:08:00,46.0,9.2,30.15,North,354,0.0,0.0,22,0.00,,,0.00,WeatherDisplay:10.37,2013-03-12 02:08:00,
2013-03-11 19:19:00,45.5,8.8,30.15,North,357,0.0,0.0,22,0.00,,,0.00,WeatherDisplay:10.37,2013-03-12 02:19:00,
2013-03-11 19:28:00,44.4,8.9,30.15,North,357,0.0,0.0,23,0.00,,,0.00,WeatherDisplay:10.37,2013-03-12 02:28:00,
2013-03-11 19:33:00,44.1,8.6,30.15,North,357,0.0,0.0,23,0.00,,,0.00,WeatherDisplay:10.37,2013-03-12 02:33:00,
2013-03-11 19:38:00,44.1,8.6,30.15,North,357,0.0,0.0,23,0.00,,,0.00,WeatherDisplay:10.37,2013-03-12 02:38:00,
2013-03-11 19:43:00,43.7,8.3,30.15,North,357,0.0,0.0,23,0.00,,,0.00,WeatherDisplay:10.37,2013-03-12 02:43:00,
2013-03-11 19:48:00,43.5,8.1,30.15,North,357,0.0,0.0,23,0.00,,,0.00,WeatherDisplay:10.37,2013-03-12 02:48:00,
2013-03-11 19:53:00,43.5,8.1,30.15,North,357,0.0,0.0,23,0.00,,,0.00,WeatherDisplay:10.37,2013-03-12 02:53:00,
2013-03-11 19:58:00,43.5,8.1,30.15,North,357,0.0,0.0,23,0.00,,,0.00,WeatherDisplay:10.37,2013-03-12 02:58:00,
2013-03-11 20:03:00,43.3,8.0,30.15,North,357,0.0,0.0,23,0.00,,,0.00,WeatherDisplay:10.37,2013-03-12 03:03:00,
2013-03-11 20:08:00,43.0,7.7,30.15,North,357,0.0,0.0,23,0.00,,,0.00,WeatherDisplay:10.37,2013-03-12 03:08:00,
2013-03-11 20:13:00,42.4,7.2,30.15,North,357,0.0,0.0,23,0.00,,,0.00,WeatherDisplay:10.37,2013-03-12 03:13:00,
2013-03-11 20:18:00,42.1,6.9,30.15,North,357,0.0,0.0,23,0.00,,,0.00,WeatherDisplay:10.37,2013-03-12 03:18:00,
2013-03-11 20:23:00,42.1,6.9,30.15,North,357,0.0,0.0,23,0.00,,,0.00,WeatherDisplay:10.37,2013-03-12 03:23:00,
2013-03-11 20:28:00,41.7,6.6,30.15,North,357,0.0,0.0,23,0.00,,,0.00,WeatherDisplay:10.37,2013-03-12 03:28:00,
2013-03-11 20:33:00,41.2,6.2,30.15,North,357,0.0,0.0,23,0.00,,,0.00,WeatherDisplay:10.37,2013-03-12 03:33:00,
2013-03-11 20:38:00,40.7,8.4,30.15,North,357,0.0,0.0,26,0.00,,,0.00,WeatherDisplay:10.37,2013-03-12 03:38:00,
2013-03-11 20:43:00,40.5,8.2,30.15,North,357,0.0,0.0,26,0.00,,,0.00,WeatherDisplay:10.37,2013-03-12 03:43:00,
2013-03-11 20:48:00,40.3,8.0,30.15,North,357,0.0,0.0,26,0.00,,,0.00,WeatherDisplay:10.37,2013-03-12 03:48:00,
2013-03-11 20:53:00,39.9,7.7,30.18,North,357,0.0,0.0,26,0.00,,,0.00,WeatherDisplay:10.37,2013-03-12 03:53:00,
2013-03-11 20:58:00,39.7,7.6,30.18,North,357,0.0,0.0,26,0.00,,,0.00,WeatherDisplay:10.37,2013-03-12 03:58:00,
2013-03-11 21:03:00,39.4,7.3,30.18,North,357,0.0,0.0,26,0.00,,,0.00,WeatherDisplay:10.37,2013-03-12 04:03:00,
2013-03-11 21:08:00,39.0,9.4,30.18,North,357,0.0,0.0,29,0.00,,,0.00,WeatherDisplay:10.37,2013-03-12 04:08:00,
2013-03-11 21:13:00,39.0,9.4,30.18,North,357,0.0,0.0,29,0.00,,,0.00,WeatherDisplay:10.37,2013-03-12 04:13:00,
2013-03-11 21:18:00,38.8,9.2,30.18,North,357,0.0,0.0,29,0.00,,,0.00,WeatherDisplay:10.37,2013-03-12 04:18:00,
2013-03-11 21:28:00,38.7,9.1,30.18,North,357,0.0,0.0,29,0.00,,,0.00,WeatherDisplay:10.37,2013-03-12 04:28:00,
2013-03-11 21:38:00,38.8,9.2,30.18,North,357,0.0,0.0,29,0.00,,,0.00,WeatherDisplay:10.37,2013-03-12 04:38:00,
2013-03-11 21:43:00,38.7,9.1,30.18,North,357,0.0,0.0,29,0.00,,,0.00,WeatherDisplay:10.37,2013-03-12 04:43:00,
2013-03-11 21:48:00,38.7,9.1,30.18,North,357,0.0,0.0,29,0.00,,,0.00,WeatherDisplay:10.37,2013-03-12 04:48:00,
2013-03-11 21:53:00,38.5,9.7,30.18,North,357,0.0,0.0,30,0.00,,,0.00,WeatherDisplay:10.37,2013-03-12 04:53:00,
2013-03-11 21:58:00,38.1,9.4,30.18,North,357,0.0,0.0,30,0.00,,,0.00,WeatherDisplay:10.37,2013-03-12 04:58:00,
2013-03-11 22:03:00,37.8,9.1,30.18,North,357,0.0,0.0,30,0.00,,,0.00,WeatherDisplay:10.37,2013-03-12 05:03:00,
2013-03-11 22:08:00,37.6,8.9,30.18,North,357,0.0,0.0,30,0.00,,,0.00,WeatherDisplay:10.37,2013-03-12 05:08:00,
2013-03-11 22:18:00,37.3,8.6,30.18,North,357,0.0,0.0,30,0.00,,,0.00,WeatherDisplay:10.37,2013-03-12 05:18:00,
2013-03-11 22:23:00,37.0,8.4,30.18,North,357,0.0,0.0,30,0.00,,,0.00,WeatherDisplay:10.37,2013-03-12 05:23:00,
2013-03-11 22:28:00,36.7,8.1,30.18,North,357,0.0,0.0,30,0.00,,,0.00,WeatherDisplay:10.37,2013-03-12 05:28:00,
2013-03-11 22:33:00,36.4,7.9,30.18,North,357,0.0,0.0,30,0.00,,,0.00,WeatherDisplay:10.37,2013-03-12 05:33:00,
2013-03-11 22:38:00,36.3,8.5,30.18,North,357,0.0,0.0,31,0.00,,,0.00,WeatherDisplay:10.37,2013-03-12 05:38:00,
2013-03-11 22:48:00,36.3,9.2,30.18,North,357,0.0,0.0,32,0.00,,,0.00,WeatherDisplay:10.37,2013-03-12 05:48:00,
2013-03-11 22:53:00,36.1,8.4,30.18,North,357,0.0,0.0,31,0.00,,,0.00,WeatherDisplay:10.37,2013-03-12 05:53:00,
2013-03-11 22:58:00,36.1,9.1,30.18,North,357,0.0,0.0,32,0.00,,,0.00,WeatherDisplay:10.37,2013-03-12 05:58:00,
2013-03-11 23:03:00,36.0,8.9,30.18,North,357,0.0,0.0,32,0.00,,,0.00,WeatherDisplay:10.37,2013-03-12 06:03:00,
2013-03-11 23:08:00,35.6,8.6,30.18,North,357,0.0,0.0,32,0.00,,,0.00,WeatherDisplay:10.37,2013-03-12 06:08:00,
2013-03-11 23:13:00,35.6,8.6,30.18,North,357,0.0,0.0,32,0.00,,,0.00,WeatherDisplay:10.37,2013-03-12 06:13:00,
2013-03-11 23:18:00,35.4,8.4,30.18,North,357,0.0,0.0,32,0.00,,,0.00,WeatherDisplay:10.37,2013-03-12 06:18:00,
2013-03-11 23:23:00,35.4,8.4,30.18,North,357,0.0,0.0,32,0.00,,,0.00,WeatherDisplay:10.37,2013-03-12 06:23:00,
2013-03-11 23:28:00,35.4,7.7,30.18,North,357,0.0,0.0,31,0.00,,,0.00,WeatherDisplay:10.37,2013-03-12 06:28:00,
2013-03-11 23:33:00,35.4,7.7,30.18,North,357,0.0,0.0,31,0.00,,,0.00,WeatherDisplay:10.37,2013-03-12 06:33:00,
2013-03-11 23:38:00,35.2,7.6,30.18,North,357,0.0,0.0,31,0.00,,,0.00,WeatherDisplay:10.37,2013-03-12 06:38:00,
2013-03-11 23:43:00,34.9,7.3,30.18,North,357,0.0,0.0,31,0.00,,,0.00,WeatherDisplay:10.37,2013-03-12 06:43:00,
2013-03-11 23:48:00,34.7,7.1,30.18,North,357,0.0,0.0,31,0.00,,,0.00,WeatherDisplay:10.37,2013-03-12 06:48:00,
2013-03-11 23:53:00,34.7,7.1,30.18,North,357,0.0,0.0,31,0.00,,,0.00,WeatherDisplay:10.37,2013-03-12 06:53:00,
2013-03-11 23:58:00,34.8,7.2,30.18,North,357,0.0,0.0,31,0.00,,,0.00,WeatherDisplay:10.37,2013-03-12 06:58:00,